Time;durP1;ratioP1;P1;durP2;ratioP2;P2;SDS_P1;SDS_P2;PMS_P1;PMS_P2;Temp;Humidity;BMP_temperature;BMP_pressure;BME280_temperature;BME280_humidity;BME280_pressure;Samples;Min_cycle;Max_cycle;Signal;HPM_P1;HPM_P2
2022/06/10 00:00:42;;;;;;;1.75;1.50;;;;;;;16.67;69.82;98080.31;5073754;28;20082;-90
2022/06/10 00:03:09;;;;;;;2.33;1.60;;;;;;;16.75;69.93;98093.25;5072820;28;20048;-91
2022/06/10 00:05:36;;;;;;;1.90;1.65;;;;;;;16.73;68.71;98081.75;5073784;28;20036;-91
2022/06/10 00:08:04;;;;;;;1.45;1.35;;;;;;;16.78;69.06;98085.84;5069846;28;20024;-90
2022/06/10 00:10:32;;;;;;;4.30;1.67;;;;;;;16.87;67.75;98088.97;5073565;28;20036;-94
2022/06/10 00:12:58;;;;;;;5.82;2.30;;;;;;;16.92;67.10;98076.97;5074045;28;20122;-91
2022/06/10 00:15:24;;;;;;;3.72;1.40;;;;;;;16.98;65.59;98083.75;5071859;28;20040;-91
2022/06/10 00:17:50;;;;;;;6.05;2.75;;;;;;;17.11;65.70;98089.22;5073796;28;20040;-92
2022/06/10 00:20:19;;;;;;;2.40;1.48;;;;;;;17.18;65.32;98101.31;5073217;28;20043;-91
2022/06/10 00:22:44;;;;;;;;;;;;;;;17.19;65.26;98103.88;5074088;28;20044;-91
2022/06/10 00:25:11;;;;;;;2.08;1.30;;;;;;;17.08;65.10;98086.72;5072699;28;19974;-91
2022/06/10 00:27:38;;;;;;;2.85;1.60;;;;;;;17.13;64.70;98093.53;5073115;28;20032;-90
2022/06/10 00:30:06;;;;;;;1.35;1.25;;;;;;;17.24;64.19;98093.72;5074136;28;20056;-93
2022/06/10 00:32:31;;;;;;;2.35;1.38;;;;;;;17.32;63.96;98101.25;5071764;28;20048;-90
2022/06/10 00:34:57;;;;;;;1.60;1.30;;;;;;;17.30;63.68;98097.81;5074051;28;20525;-91
2022/06/10 00:37:23;;;;;;;1.45;1.10;;;;;;;17.34;63.24;98087.72;5072752;28;20037;-92
2022/06/10 00:39:49;;;;;;;1.40;1.30;;;;;;;17.32;63.41;98079.75;5069596;28;20109;-90
2022/06/10 00:42:15;;;;;;;1.38;1.27;;;;;;;17.57;61.94;98094.28;5072926;28;20490;-89
2022/06/10 00:44:45;;;;;;;1.75;1.40;;;;;;;17.62;61.96;98090.31;5073149;28;20486;-92
2022/06/10 00:47:16;;;;;;;1.83;1.30;;;;;;;17.61;62.04;98099.34;5070842;28;20445;-92
2022/06/10 00:49:47;;;;;;;1.25;1.20;;;;;;;17.57;61.07;98083.53;5072071;28;20410;-92
2022/06/10 00:52:22;;;;;;;2.30;1.40;;;;;;;17.60;61.27;98078.78;5072552;28;20044;-90
2022/06/10 00:54:51;;;;;;;3.30;1.80;;;;;;;17.67;61.32;98095.38;5071747;28;20385;-89
2022/06/10 00:57:19;;;;;;;2.80;1.27;;;;;;;17.71;60.99;98099.59;5071268;28;20389;-92
2022/06/10 00:59:50;;;;;;;1.08;1.08;;;;;;;17.55;61.13;98077.41;5072985;28;20049;-91
2022/06/10 01:02:18;;;;;;;4.95;1.30;;;;;;;17.65;61.02;98098.19;5072222;28;20040;-93
2022/06/10 01:04:44;;;;;;;1.98;1.30;;;;;;;17.68;61.17;98104.31;5072213;28;20044;-91
2022/06/10 01:07:14;;;;;;;1.33;1.23;;;;;;;17.76;60.00;98102.84;5074172;28;20048;-93
2022/06/10 01:09:41;;;;;;;1.35;1.25;;;;;;;17.73;60.33;98100.34;5072589;28;20494;-90
2022/06/10 01:12:37;;;;;;;3.25;1.30;;;;;;;17.73;60.30;98092.28;5071570;28;20070;-91
2022/06/10 01:15:14;;;;;;;1.63;1.20;;;;;;;17.89;59.85;98110.09;5072165;28;20052;-91
2022/06/10 01:18:04;;;;;;;2.25;1.30;;;;;;;17.88;59.77;98111.09;5072412;28;20052;-90
2022/06/10 01:20:43;;;;;;;1.13;1.02;;;;;;;17.91;59.67;98114.41;5070352;28;20036;-91
2022/06/10 01:23:57;;;;;;;1.00;1.00;;;;;;;17.92;59.77;98115.28;5071577;28;20401;-91
2022/06/10 01:30:11;;;;;;;1.65;1.30;;;;;;;17.76;60.62;98124.38;5089704;27;20381;-91
2022/06/10 01:32:48;;;;;;;2.17;1.08;;;;;;;17.76;60.16;98121.66;5088390;28;20045;-91
2022/06/10 01:35:21;;;;;;;2.03;1.20;;;;;;;17.76;60.35;98107.34;5088452;28;20044;-89
2022/06/10 01:37:57;;;;;;;2.13;1.20;;;;;;;17.85;59.99;98114.84;5088565;28;20040;-89
2022/06/10 01:40:32;;;;;;;1.25;1.10;;;;;;;17.80;59.88;98117.81;5089708;28;20068;-90
2022/06/10 01:43:03;;;;;;;1.10;1.00;;;;;;;17.77;59.99;98122.53;5089946;28;20047;-91
2022/06/10 01:45:33;;;;;;;1.05;1.00;;;;;;;17.81;59.67;98118.66;5088198;28;20040;-92
2022/06/10 01:48:04;;;;;;;1.05;1.00;;;;;;;17.80;60.03;98116.94;5089258;28;20040;-91
2022/06/10 01:50:34;;;;;;;1.02;1.00;;;;;;;17.85;59.14;98120.22;5089472;28;20036;-91
2022/06/10 01:53:05;;;;;;;2.75;1.10;;;;;;;17.74;59.33;98107.47;5088490;28;20055;-90
2022/06/10 01:55:36;;;;;;;1.40;1.20;;;;;;;17.72;59.01;98101.31;5088824;28;20051;-89
2022/06/10 01:58:07;;;;;;;1.05;1.00;;;;;;;17.83;59.40;98119.47;5088761;28;20036;-93
2022/06/10 02:00:35;;;;;;;2.40;1.00;;;;;;;17.83;59.69;98117.63;5088048;28;20102;-89
2022/06/10 02:03:08;;;;;;;2.28;1.20;;;;;;;17.86;58.92;98116.56;5088090;28;20033;-91
2022/06/10 02:05:39;;;;;;;2.88;1.75;;;;;;;17.78;59.16;98109.00;5089789;28;20101;-91
2022/06/10 02:08:12;;;;;;;1.50;1.00;;;;;;;17.89;58.77;98112.78;5087765;28;20042;-91
2022/06/10 02:10:44;;;;;;;2.75;1.15;;;;;;;17.78;59.09;98095.53;5088326;28;20151;-91
2022/06/10 02:13:15;;;;;;;1.55;1.00;;;;;;;17.83;58.86;98106.03;5088159;28;20036;-91
2022/06/10 02:15:47;;;;;;;1.83;1.10;;;;;;;17.80;58.93;98103.47;5089374;28;20497;-91
2022/06/10 02:18:17;;;;;;;1.23;1.10;;;;;;;17.91;58.57;98108.19;5089105;28;20076;-92
2022/06/10 02:20:47;;;;;;;1.73;1.20;;;;;;;17.98;58.41;98126.50;5088688;28;20066;-93
2022/06/10 02:23:18;;;;;;;1.40;1.30;;;;;;;17.84;58.84;98103.19;5087383;28;20040;-92
2022/06/10 02:25:47;;;;;;;1.05;1.05;;;;;;;17.91;59.25;98125.16;5087148;28;20028;-92
2022/06/10 02:28:20;;;;;;;1.25;1.20;;;;;;;17.92;58.65;98117.97;5089011;28;20048;-93
2022/06/10 02:30:52;;;;;;;2.10;1.20;;;;;;;17.78;59.67;98121.53;5088214;28;20135;-92
2022/06/10 02:33:19;;;;;;;1.10;1.10;;;;;;;17.72;59.29;98132.72;5086599;28;20501;-93
2022/06/10 02:35:56;;;;;;;1.75;1.20;;;;;;;17.69;59.64;98112.25;5089097;28;20044;-91
2022/06/10 02:38:31;;;;;;;1.23;1.13;;;;;;;17.63;59.89;98121.63;5090244;28;20041;-91
2022/06/10 02:41:04;;;;;;;1.85;1.15;;;;;;;17.62;59.81;98121.72;5076717;28;20075;-92
2022/06/10 02:43:37;;;;;;;1.30;1.20;;;;;;;17.76;59.98;98145.88;5075568;28;20453;-91
2022/06/10 02:46:08;;;;;;;1.50;1.40;;;;;;;17.58;59.93;98125.56;5076049;28;20043;-92
2022/06/10 02:48:46;;;;;;;1.30;1.20;;;;;;;17.71;59.81;98147.13;5075505;28;20059;-92
2022/06/10 02:51:13;;;;;;;1.15;1.08;;;;;;;17.60;59.63;98126.31;5075567;28;20043;-94
2022/06/10 02:53:39;;;;;;;1.17;1.08;;;;;;;17.61;59.73;98134.31;5076337;28;20045;-91
2022/06/10 02:56:15;;;;;;;1.60;1.10;;;;;;;17.64;59.64;98135.91;5075039;28;20516;-91
2022/06/10 03:01:56;;;;;;;1.23;1.00;;;;;;;17.63;59.89;98142.25;5090368;27;20382;-90
2022/06/10 03:04:31;;;;;;;0.90;0.90;;;;;;;17.60;60.04;98147.84;5089111;28;20099;-90
2022/06/10 03:07:12;;;;;;;2.58;1.20;;;;;;;17.62;59.73;98152.16;5088353;28;20594;-92
2022/06/10 03:09:53;;;;;;;1.50;0.95;;;;;;;17.62;59.56;98144.09;5090224;28;20036;-92
2022/06/10 03:12:27;;;;;;;1.17;1.08;;;;;;;17.60;60.05;98162.13;5088001;28;20033;-91
2022/06/10 03:15:06;;;;;;;1.80;1.00;;;;;;;17.57;60.01;98148.91;5090605;28;20109;-88
2022/06/10 03:17:40;;;;;;;1.15;1.05;;;;;;;17.61;59.96;98161.19;5091070;28;20086;-95
2022/06/10 03:20:14;;;;;;;1.33;0.90;;;;;;;17.64;59.73;98168.19;5090468;28;20033;-92
2022/06/10 03:22:56;;;;;;;1.20;1.10;;;;;;;17.66;59.83;98159.06;5090443;28;20058;-91
2022/06/10 03:25:28;;;;;;;1.55;1.10;;;;;;;17.71;59.38;98163.25;5090371;28;20048;-89
2022/06/10 03:28:02;;;;;;;1.08;0.98;;;;;;;17.69;59.70;98166.03;5089600;28;20098;-91
2022/06/10 03:30:33;;;;;;;0.90;0.90;;;;;;;17.79;59.17;98175.25;5089785;28;20040;-91
2022/06/10 03:33:10;;;;;;;1.10;1.00;;;;;;;17.78;59.30;98184.28;5089629;28;20048;-91
2022/06/10 03:35:40;;;;;;;1.30;1.20;;;;;;;17.66;59.44;98169.81;5089547;28;20032;-91
2022/06/10 03:38:08;;;;;;;2.13;1.20;;;;;;;17.72;59.53;98195.44;5090642;28;20109;-93
2022/06/10 03:40:35;;;;;;;3.13;1.27;;;;;;;17.75;59.27;98197.06;5089624;28;20048;-92
2022/06/10 03:43:04;;;;;;;0.98;0.98;;;;;;;17.69;59.15;98182.19;5090671;28;20501;-93
2022/06/10 03:45:37;;;;;;;1.33;0.95;;;;;;;17.69;59.71;98186.69;5089957;28;20054;-92
2022/06/10 03:48:06;;;;;;;2.42;1.20;;;;;;;17.69;58.83;98187.56;5090529;28;20036;-92
2022/06/10 03:50:36;;;;;;;2.20;1.17;;;;;;;17.73;58.18;98175.63;5089781;28;20036;-91
2022/06/10 03:53:02;;;;;;;1.63;1.40;;;;;;;17.79;58.49;98188.69;5090910;28;20036;-91
2022/06/10 03:55:28;;;;;;;1.20;1.10;;;;;;;17.82;58.52;98201.94;5089227;28;20396;-93
2022/06/10 03:57:53;;;;;;;5.63;1.13;;;;;;;17.80;58.73;98203.00;5090748;28;20036;-91
2022/06/10 04:00:23;;;;;;;1.33;1.13;;;;;;;17.80;58.28;98195.81;5089459;28;20459;-91
2022/06/10 04:02:49;;;;;;;1.30;1.20;;;;;;;17.79;58.20;98194.06;5088308;28;20044;-92
2022/06/10 04:05:17;;;;;;;2.78;1.00;;;;;;;17.89;58.00;98213.19;5089067;28;20041;-92
2022/06/10 04:07:44;;;;;;;0.83;0.80;;;;;;;17.79;58.47;98201.28;5089940;28;20040;-93
2022/06/10 04:10:14;;;;;;;1.83;1.00;;;;;;;17.82;58.53;98204.66;5089464;28;20044;-92
2022/06/10 04:12:40;;;;;;;1.20;1.10;;;;;;;17.83;58.14;98202.84;5076557;28;20410;-92
2022/06/10 04:15:07;;;;;;;0.95;0.90;;;;;;;17.80;58.60;98194.91;5076178;28;20094;-91
2022/06/10 04:17:33;;;;;;;1.10;1.00;;;;;;;17.80;58.14;98198.50;5076564;28;20367;-92
2022/06/10 04:19:59;;;;;;;1.35;1.10;;;;;;;17.70;58.60;98200.06;5076891;28;20093;-92
2022/06/10 04:22:27;;;;;;;1.50;1.08;;;;;;;17.69;58.41;98203.69;5076190;28;20454;-93
2022/06/10 04:24:53;;;;;;;0.90;0.90;;;;;;;17.76;57.96;98214.91;5076149;28;20501;-89
2022/06/10 04:27:19;;;;;;;1.15;1.05;;;;;;;17.80;58.21;98214.63;5076290;28;20119;-92
2022/06/10 04:29:45;;;;;;;2.92;1.17;;;;;;;17.85;58.34;98217.06;5076053;28;20117;-90
2022/06/10 04:32:11;;;;;;;2.35;1.20;;;;;;;17.83;58.23;98225.22;5074307;28;20037;-90
2022/06/10 04:34:36;;;;;;;1.38;1.10;;;;;;;17.85;58.13;98217.91;5075823;28;20119;-88
2022/06/10 04:37:03;;;;;;;2.95;1.10;;;;;;;17.77;58.01;98206.75;5075909;28;20068;-93
2022/06/10 04:39:30;;;;;;;1.45;1.00;;;;;;;17.97;57.53;98220.75;5075669;28;20135;-90
2022/06/10 04:41:56;;;;;;;2.50;1.25;;;;;;;17.89;57.48;98210.50;5074968;28;20482;-92
2022/06/10 04:44:22;;;;;;;1.67;0.93;;;;;;;18.03;57.62;98218.50;5076063;28;20048;-91
2022/06/10 04:46:48;;;;;;;0.90;0.90;;;;;;;17.98;58.54;98217.13;5076387;28;20037;-90
2022/06/10 04:49:13;;;;;;;1.10;1.00;;;;;;;18.03;58.22;98214.97;5075106;28;20105;-90
2022/06/10 04:51:39;;;;;;;1.45;1.00;;;;;;;18.22;57.82;98225.38;5075015;28;20036;-93
2022/06/10 04:54:05;;;;;;;2.63;1.70;;;;;;;18.29;57.34;98236.59;5075665;28;20047;-90
2022/06/10 04:56:33;;;;;;;2.38;1.10;;;;;;;18.84;56.49;98233.69;5075287;28;20502;-91
2022/06/10 04:58:59;;;;;;;1.20;1.00;;;;;;;19.06;55.27;98227.69;5075427;28;20068;-91
2022/06/10 05:01:25;;;;;;;1.50;1.13;;;;;;;18.92;55.59;98214.31;5074693;28;20064;-90
2022/06/10 05:03:51;;;;;;;1.58;1.10;;;;;;;19.02;55.96;98231.56;5075712;28;20118;-90
2022/06/10 05:06:22;;;;;;;2.70;1.08;;;;;;;18.83;55.36;98231.97;5077200;28;20044;-91
2022/06/10 05:08:48;;;;;;;1.90;1.30;;;;;;;19.37;54.38;98214.72;5074772;28;20064;-91
2022/06/10 05:11:14;;;;;;;2.65;1.40;;;;;;;19.74;53.51;98244.44;5075954;28;20044;-92
2022/06/10 05:13:41;;;;;;;2.03;1.20;;;;;;;19.96;52.28;98234.78;5074834;28;20394;-92
2022/06/10 05:16:07;;;;;;;1.13;1.05;;;;;;;20.34;52.08;98247.25;5075534;28;20128;-91
2022/06/10 05:18:34;;;;;;;2.17;1.30;;;;;;;20.19;51.70;98243.84;5075235;28;20139;-90
2022/06/10 05:21:00;;;;;;;1.77;1.20;;;;;;;20.03;52.27;98245.00;5073401;28;20049;-91
2022/06/10 05:23:26;;;;;;;2.95;1.40;;;;;;;19.69;52.78;98251.97;5073826;28;20493;-93
2022/06/10 05:25:52;;;;;;;1.00;1.00;;;;;;;20.49;51.84;98254.19;5074226;28;20134;-90
2022/06/10 05:28:19;;;;;;;2.72;1.30;;;;;;;20.21;51.58;98275.19;5075128;28;20032;-92
2022/06/10 05:30:47;;;;;;;2.30;1.52;;;;;;;20.16;51.84;98266.53;5075400;28;20512;-90
2022/06/10 05:33:14;;;;;;;1.85;1.30;;;;;;;19.77;53.50;98264.94;5072344;28;20037;-91
2022/06/10 05:35:41;;;;;;;0.90;0.90;;;;;;;19.40;54.31;98263.03;5074117;28;20040;-91
2022/06/10 05:38:08;;;;;;;2.35;1.38;;;;;;;19.35;54.29;98262.50;5073217;28;20032;-89
2022/06/10 05:40:35;;;;;;;3.40;1.30;;;;;;;19.66;54.66;98263.84;5073263;28;20041;-90
2022/06/10 05:43:02;;;;;;;1.25;1.10;;;;;;;19.85;52.18;98259.84;5073419;28;20040;-93
2022/06/10 05:45:29;;;;;;;2.13;1.05;;;;;;;19.53;53.20;98264.84;5075747;28;20043;-92
2022/06/10 05:47:58;;;;;;;1.27;1.13;;;;;;;19.54;52.36;98245.88;5070014;28;20044;-91
2022/06/10 05:50:32;;;;;;;3.13;1.20;;;;;;;19.93;51.51;98267.38;5072658;28;20037;-90
2022/06/10 05:52:58;;;;;;;2.28;1.02;;;;;;;19.90;51.72;98280.09;5073962;28;20051;-91
2022/06/10 05:55:25;;;;;;;1.85;1.20;;;;;;;19.50;51.88;98277.56;5073864;28;20049;-91
2022/06/10 05:57:51;;;;;;;2.05;1.10;;;;;;;19.55;51.47;98261.06;5074938;28;20127;-91
2022/06/10 06:00:19;;;;;;;1.20;1.10;;;;;;;19.96;50.44;98276.13;5074167;28;20516;-90
2022/06/10 06:02:45;;;;;;;1.10;1.00;;;;;;;19.88;50.85;98287.47;5074616;28;20036;-91
2022/06/10 06:05:13;;;;;;;2.47;0.93;;;;;;;19.85;50.90;98270.66;5073942;28;20036;-93
2022/06/10 06:07:42;;;;;;;1.25;1.10;;;;;;;20.09;51.69;98308.47;5071258;28;20043;-92
2022/06/10 06:10:11;;;;;;;1.30;1.20;;;;;;;19.47;52.56;98296.69;5074763;28;20563;-93
2022/06/10 06:12:37;;;;;;;2.53;1.20;;;;;;;19.37;52.88;98300.16;5073035;28;20036;-90
2022/06/10 06:15:03;;;;;;;3.92;1.38;;;;;;;19.45;52.59;98309.41;5054875;28;20041;-92
2022/06/10 06:17:29;;;;;;;1.52;1.15;;;;;;;19.59;52.06;98310.25;5054351;28;20095;-90
2022/06/10 06:19:55;;;;;;;1.20;1.05;;;;;;;19.72;49.65;98296.78;5053846;28;20407;-93
2022/06/10 06:22:22;;;;;;;1.48;1.20;;;;;;;19.74;50.51;98295.72;5054259;28;20207;-91
2022/06/10 06:24:48;;;;;;;1.33;1.00;;;;;;;19.76;50.84;98304.56;5054313;28;20056;-91
2022/06/10 06:27:16;;;;;;;1.55;1.20;;;;;;;19.63;49.91;98303.69;5054583;28;20403;-92
2022/06/10 06:29:43;;;;;;;1.70;1.17;;;;;;;19.57;51.02;98323.84;5054303;28;20041;-90
2022/06/10 06:32:10;;;;;;;1.25;1.10;;;;;;;19.73;51.11;98312.84;5053206;28;20583;-91
2022/06/10 06:34:37;;;;;;;1.33;1.23;;;;;;;19.59;51.06;98318.34;5054364;28;20064;-92
2022/06/10 06:37:03;;;;;;;1.10;1.00;;;;;;;19.74;50.19;98335.31;5050137;28;20123;-89
2022/06/10 06:39:30;;;;;;;1.20;1.10;;;;;;;19.96;48.95;98338.19;5053255;28;20063;-91
2022/06/10 06:41:57;;;;;;;2.28;1.13;;;;;;;20.16;48.44;98315.13;5052162;28;20052;-91
2022/06/10 06:44:22;;;;;;;2.15;1.20;;;;;;;20.25;47.44;98333.34;5051953;28;20059;-90
2022/06/10 06:46:48;;;;;;;2.97;1.25;;;;;;;20.11;47.78;98311.91;5053502;28;20045;-89
2022/06/10 06:49:17;;;;;;;1.27;1.17;;;;;;;20.95;46.72;98326.38;5052904;28;20045;-91
2022/06/10 06:51:43;;;;;;;1.95;1.10;;;;;;;21.51;45.54;98329.25;5053742;28;20033;-91
2022/06/10 06:54:09;;;;;;;2.58;1.20;;;;;;;21.77;44.69;98326.28;5053773;28;20033;-90
2022/06/10 06:56:37;;;;;;;1.30;1.20;;;;;;;21.93;43.98;98326.78;5055298;28;20044;-91
2022/06/10 06:59:05;;;;;;;2.33;1.10;;;;;;;21.51;44.51;98315.72;5054016;28;20094;-91
2022/06/10 07:01:31;;;;;;;3.17;1.13;;;;;;;21.89;43.56;98321.75;5053572;28;20060;-93
2022/06/10 07:03:57;;;;;;;1.48;1.30;;;;;;;21.80;44.12;98320.63;5053976;28;20106;-92
2022/06/10 07:06:25;;;;;;;;;;;;;;;21.67;45.14;98331.59;5054446;28;20103;-92
2022/06/10 07:08:51;;;;;;;2.63;1.42;;;;;;;21.83;44.22;98331.19;5053568;28;20448;-94
2022/06/10 07:11:17;;;;;;;2.40;1.63;;;;;;;21.13;46.89;98343.88;5054189;28;20076;-93
2022/06/10 07:13:44;;;;;;;1.45;1.27;;;;;;;21.50;45.26;98345.59;5054377;28;20633;-92
2022/06/10 07:16:11;;;;;;;2.08;1.30;;;;;;;21.40;45.37;98328.31;5051729;28;20049;-90
2022/06/10 07:18:37;;;;;;;2.83;1.40;;;;;;;21.50;45.09;98353.69;5054239;28;20037;-91
2022/06/10 07:21:03;;;;;;;2.60;1.30;;;;;;;21.37;45.72;98350.19;5053470;28;20043;-91
2022/06/10 07:23:29;;;;;;;2.05;1.25;;;;;;;21.06;46.15;98368.81;5053592;28;20139;-93
2022/06/10 07:25:55;;;;;;;3.28;1.50;;;;;;;20.83;46.50;98343.50;5051154;28;20590;-89
2022/06/10 07:28:22;;;;;;;1.30;1.20;;;;;;;20.82;47.14;98349.88;5054699;28;20064;-90
2022/06/10 07:30:49;;;;;;;1.92;1.30;;;;;;;21.64;46.10;98374.25;5053838;28;20037;-91
2022/06/10 07:33:16;;;;;;;2.05;1.35;;;;;;;21.87;44.00;98343.50;5053003;28;20514;-91
2022/06/10 07:35:42;;;;;;;3.92;1.55;;;;;;;21.60;45.65;98343.00;5052406;28;20045;-92
2022/06/10 07:38:09;;;;;;;1.42;1.30;;;;;;;21.64;46.30;98356.19;5049684;28;20441;-91
2022/06/10 07:43:41;;;;;;;3.80;1.50;;;;;;;21.34;45.54;98368.41;5133594;27;20378;-94
2022/06/10 07:46:09;;;;;;;1.85;1.30;;;;;;;21.83;44.49;98357.41;5132417;28;20080;-93
2022/06/10 07:48:35;;;;;;;2.83;1.25;;;;;;;22.25;43.74;98350.44;5130411;27;20042;-91
2022/06/10 07:51:00;;;;;;;1.98;1.42;;;;;;;22.01;43.86;98336.13;5131636;28;20040;-91
2022/06/10 07:53:29;;;;;;;1.08;1.08;;;;;;;22.12;43.61;98338.81;5131467;27;20039;-91
2022/06/10 07:55:55;;;;;;;;;;;;;;;22.54;42.87;98350.72;5133694;27;20118;-91
2022/06/10 07:58:20;;;;;;;1.45;1.30;;;;;;;23.14;42.86;98362.00;5129598;27;20006;-89
2022/06/10 08:00:48;;;;;;;2.05;1.45;;;;;;;22.78;42.94;98363.22;5132412;27;20148;-93
2022/06/10 08:03:14;;;;;;;1.85;1.27;;;;;;;22.69;42.67;98367.56;5130464;27;20031;-93
2022/06/10 08:05:41;;;;;;;2.92;1.20;;;;;;;22.11;43.63;98375.00;5132222;27;20166;-93
2022/06/10 08:08:08;;;;;;;1.50;1.38;;;;;;;22.05;43.05;98367.38;5132513;27;20096;-91
2022/06/10 08:10:36;;;;;;;3.38;1.30;;;;;;;22.03;43.22;98372.91;5132300;27;20508;-93
2022/06/10 08:13:04;;;;;;;2.37;1.27;;;;;;;22.59;42.85;98372.00;5132008;27;20040;-93
2022/06/10 08:15:33;;;;;;;1.42;1.20;;;;;;;22.20;42.57;98384.25;5131111;27;20039;-93
2022/06/10 08:18:00;;;;;;;2.40;1.20;;;;;;;22.12;43.38;98383.03;5131724;27;20475;-91
2022/06/10 08:23:29;;;;;;;2.08;1.23;;;;;;;21.80;44.37;98391.00;5132668;27;20865;-92
2022/06/10 08:25:56;;;;;;;2.38;1.30;;;;;;;22.24;43.97;98399.28;5132003;27;20042;-91
2022/06/10 08:28:22;;;;;;;3.95;1.33;;;;;;;21.90;43.42;98386.59;5132613;28;20108;-91
2022/06/10 08:30:48;;;;;;;2.13;1.40;;;;;;;21.37;44.63;98388.94;5131066;28;20040;-91
2022/06/10 08:33:15;;;;;;;2.97;1.23;;;;;;;21.87;44.31;98419.31;5132258;28;20043;-91
2022/06/10 08:35:41;;;;;;;1.83;1.30;;;;;;;21.90;44.73;98427.19;5132240;28;20046;-92
2022/06/10 08:38:12;;;;;;;2.85;1.30;;;;;;;22.40;45.58;98426.84;5128382;28;20047;-93
2022/06/10 08:40:48;;;;;;;1.92;1.50;;;;;;;22.39;44.04;98433.25;5131137;27;20670;-91
2022/06/10 08:43:24;;;;;;;2.45;1.40;;;;;;;22.21;44.42;98421.19;5130378;28;20055;-91
2022/06/10 08:45:58;;;;;;;4.10;1.50;;;;;;;22.19;44.37;98428.56;5131225;28;20492;-94
2022/06/10 08:48:33;;;;;;;4.45;1.35;;;;;;;22.30;44.38;98429.44;5126275;28;20496;-90
2022/06/10 08:51:13;;;;;;;1.92;1.50;;;;;;;21.73;45.74;98433.94;5128454;27;20036;-92
2022/06/10 08:54:15;;;;;;;2.30;1.73;;;;;;;21.29;46.85;98449.00;5131762;28;20153;-92
2022/06/10 08:56:45;;;;;;;3.47;1.50;;;;;;;21.86;45.55;98454.59;5127682;28;20061;-90
2022/06/10 08:59:24;;;;;;;1.75;1.30;;;;;;;21.98;44.75;98458.22;5128219;27;20039;-90
2022/06/10 09:02:00;;;;;;;2.97;1.40;;;;;;;21.45;46.04;98456.88;5131085;28;20035;-92
2022/06/10 09:04:36;;;;;;;1.75;1.50;;;;;;;21.78;45.72;98465.19;5130739;28;20104;-91
2022/06/10 09:07:11;;;;;;;3.78;1.50;;;;;;;22.17;45.07;98436.81;5131840;27;20070;-93
2022/06/10 09:09:39;;;;;;;2.33;1.25;;;;;;;22.23;45.87;98440.88;5131588;28;20039;-90
2022/06/10 09:12:12;;;;;;;2.00;1.50;;;;;;;22.63;44.73;98465.63;5128497;28;20039;-91
2022/06/10 09:14:40;;;;;;;2.30;1.40;;;;;;;22.55;44.12;98465.38;5133757;27;20035;-92
2022/06/10 09:17:12;;;;;;;5.30;1.70;;;;;;;22.72;44.43;98472.16;5131346;28;20043;-91
2022/06/10 09:19:49;;;;;;;6.65;1.48;;;;;;;22.02;44.85;98462.41;5130509;28;20069;-91
2022/06/10 09:22:21;;;;;;;1.40;1.30;;;;;;;22.06;45.71;98462.03;5131909;28;20047;-92
2022/06/10 09:24:53;;;;;;;2.15;1.45;;;;;;;21.73;46.32;98476.38;5131413;28;20051;-90
2022/06/10 09:27:27;;;;;;;2.97;1.58;;;;;;;21.88;46.42;98485.13;5132949;27;20500;-93
2022/06/10 09:29:54;;;;;;;1.95;1.33;;;;;;;22.12;45.57;98471.50;5130253;28;20051;-90
2022/06/10 09:32:28;;;;;;;2.75;1.52;;;;;;;22.09;45.70;98464.50;5129449;28;20549;-89
2022/06/10 09:35:03;;;;;;;2.40;1.92;;;;;;;21.95;46.70;98465.59;5114839;28;20123;-90
2022/06/10 09:37:39;;;;;;;5.15;1.65;;;;;;;21.74;46.00;98469.97;5116257;28;20571;-93
2022/06/10 09:43:33;;;;;;;2.72;1.60;;;;;;;21.13;48.13;98484.47;5107953;27;20370;-93
2022/06/10 09:46:10;;;;;;;3.53;1.50;;;;;;;21.20;49.06;98474.03;5090662;28;20044;-93
2022/06/10 09:48:58;;;;;;;2.72;1.48;;;;;;;21.28;48.24;98481.59;5092484;28;20040;-94
2022/06/10 09:51:35;;;;;;;5.00;1.60;;;;;;;21.33;48.19;98479.41;5091119;28;20166;-93
2022/06/10 09:54:16;;;;;;;4.47;1.60;;;;;;;20.99;49.13;98484.66;5092871;28;20040;-94
2022/06/10 09:56:56;;;;;;;3.67;1.80;;;;;;;21.07;48.90;98476.81;5091444;28;20048;-94
2022/06/10 09:59:32;;;;;;;2.88;1.60;;;;;;;21.68;48.25;98476.72;5092183;28;20036;-93
2022/06/10 10:02:12;;;;;;;4.00;1.60;;;;;;;21.38;47.75;98457.41;5093016;28;20110;-91
2022/06/10 10:05:01;;;;;;;2.88;1.50;;;;;;;21.25;48.47;98485.41;5092885;28;20044;-95
2022/06/10 10:07:39;;;;;;;3.88;1.80;;;;;;;21.33;48.25;98472.13;5091653;28;20068;-91
2022/06/10 10:10:18;;;;;;;3.17;1.48;;;;;;;21.22;48.17;98482.91;5087448;28;20040;-93
2022/06/10 10:12:53;;;;;;;2.47;1.50;;;;;;;21.36;48.55;98498.13;5091031;28;20035;-91
2022/06/10 10:15:28;;;;;;;4.05;1.70;;;;;;;21.51;48.07;98480.75;5090702;28;20083;-92
2022/06/10 10:18:14;;;;;;;2.85;1.70;;;;;;;20.97;48.57;98470.38;5088566;28;20075;-90
2022/06/10 10:21:02;;;;;;;2.80;1.85;;;;;;;21.46;47.99;98493.75;5090190;28;20037;-95
2022/06/10 10:23:32;;;;;;;4.45;1.55;;;;;;;21.01;48.77;98485.38;5092420;28;20119;-94
2022/06/10 10:25:58;;;;;;;2.63;1.60;;;;;;;21.23;48.95;98503.59;5091562;28;20040;-92
2022/06/10 10:28:28;;;;;;;2.97;1.60;;;;;;;21.45;48.54;98502.00;5090544;28;20036;-92
2022/06/10 10:31:08;;;;;;;3.55;1.77;;;;;;;21.54;48.46;98502.13;5090397;28;20176;-93
2022/06/10 10:33:34;;;;;;;2.55;1.83;;;;;;;21.07;49.46;98497.56;5090653;28;20098;-92
2022/06/10 10:36:00;;;;;;;2.40;1.80;;;;;;;20.79;49.68;98517.66;5091549;28;20045;-92
2022/06/10 10:42:17;;;;;;;2.60;1.70;;;;;;;20.75;49.88;98499.94;5056721;28;20048;-95
2022/06/10 10:44:47;;;;;;;3.38;1.85;;;;;;;20.75;49.92;98527.84;5087278;28;20066;-90
2022/06/10 10:47:21;;;;;;;5.85;1.80;;;;;;;20.77;50.44;98504.25;5094704;28;20140;-93
2022/06/10 10:49:50;;;;;;;3.58;1.70;;;;;;;21.17;49.84;98511.28;5090430;28;20044;-91
2022/06/10 10:52:20;;;;;;;5.82;1.80;;;;;;;21.05;50.38;98497.69;5088956;28;20071;-92
2022/06/10 10:54:50;;;;;;;4.07;1.67;;;;;;;21.34;49.68;98508.19;5079806;28;20044;-95
2022/06/10 10:57:24;;;;;;;5.30;1.83;;;;;;;21.58;50.13;98529.84;5077998;28;20837;-92
2022/06/10 10:59:56;;;;;;;3.05;1.73;;;;;;;21.13;50.23;98527.72;5078825;28;20053;-94
2022/06/10 11:02:33;;;;;;;4.47;1.90;;;;;;;21.32;49.58;98523.66;5076431;28;20128;-93
2022/06/10 11:05:18;;;;;;;3.72;2.00;;;;;;;21.70;49.44;98519.91;5081451;28;20037;-93
2022/06/10 11:07:45;;;;;;;2.00;1.67;;;;;;;21.71;48.73;98497.28;5077898;28;20047;-91
2022/06/10 11:10:24;;;;;;;4.60;1.90;;;;;;;22.07;48.47;98525.16;5075595;28;20083;-93
2022/06/10 11:12:51;;;;;;;3.25;1.75;;;;;;;21.97;47.79;98494.38;5076695;28;20049;-91
2022/06/10 11:15:26;;;;;;;4.30;2.10;;;;;;;21.92;48.88;98513.69;5076536;28;20057;-90
2022/06/10 11:17:55;;;;;;;2.63;1.70;;;;;;;22.23;48.21;98532.97;5074352;28;20761;-91
2022/06/10 11:20:25;;;;;;;3.80;1.70;;;;;;;22.33;47.54;98515.88;5076879;28;20041;-90
2022/06/10 11:23:07;;;;;;;3.90;2.08;;;;;;;22.25;47.97;98515.66;5075534;28;20033;-93
2022/06/10 11:25:33;;;;;;;5.03;1.73;;;;;;;22.28;47.73;98538.91;5073814;28;20131;-93
2022/06/10 11:28:12;;;;;;;4.05;2.20;;;;;;;21.87;48.85;98527.59;5074930;28;20076;-93
2022/06/10 11:30:42;;;;;;;5.20;2.10;;;;;;;22.17;49.37;98536.16;5075762;28;20036;-93
2022/06/10 11:33:22;;;;;;;3.13;1.80;;;;;;;21.90;48.78;98531.91;5077297;28;20087;-92
2022/06/10 11:36:02;;;;;;;3.47;1.90;;;;;;;21.90;48.80;98519.25;5080331;28;20120;-94
2022/06/10 11:38:31;;;;;;;3.03;2.00;;;;;;;21.93;49.21;98524.41;5078550;28;20522;-88
2022/06/10 11:40:59;;;;;;;3.25;1.90;;;;;;;22.37;49.02;98510.22;5078499;28;20127;-91
2022/06/10 11:43:29;;;;;;;2.80;2.30;;;;;;;22.45;48.48;98527.59;5079181;28;20044;-91
2022/06/10 11:46:02;;;;;;;5.28;1.90;;;;;;;22.33;48.22;98510.47;5073973;28;20037;-94
2022/06/10 11:48:39;;;;;;;4.40;2.20;;;;;;;22.64;47.41;98508.03;5077973;28;20067;-93
2022/06/10 11:51:12;;;;;;;5.88;2.10;;;;;;;23.18;47.71;98484.63;5075126;28;20106;-92
2022/06/10 11:53:51;;;;;;;3.03;1.90;;;;;;;22.83;47.57;98510.06;5078849;28;20049;-92
2022/06/10 12:02:41;;;;;;;3.15;2.10;;;;;;;22.22;49.31;98515.88;5124892;27;20879;-94
2022/06/10 12:05:18;;;;;;;6.03;2.50;;;;;;;22.47;48.29;98503.09;5091367;28;20429;-93
2022/06/10 12:07:49;;;;;;;2.70;1.85;;;;;;;22.82;47.75;98502.94;5088654;28;20033;-92
2022/06/10 12:10:19;;;;;;;5.05;2.45;;;;;;;22.43;47.82;98507.03;5090785;28;20082;-93
2022/06/10 12:12:48;;;;;;;3.50;2.13;;;;;;;22.73;47.07;98509.97;5091211;28;20040;-94
2022/06/10 12:15:21;;;;;;;3.15;2.10;;;;;;;22.34;48.30;98525.75;5092038;28;20469;-94